Time;durP1;ratioP1;P1;durP2;ratioP2;P2;SDS_P1;SDS_P2;PMS_P1;PMS_P2;Temp;Humidity;BMP_temperature;BMP_pressure;BME280_temperature;BME280_humidity;BME280_pressure;Samples;Min_cycle;Max_cycle;Signal;HPM_P1;HPM_P2
2023/08/16 00:02:05;;;;;;;0.10;0.10;;;;;;;;;;4970298;28;20031;-84
2023/08/16 00:04:30;;;;;;;0.10;0.10;;;;;;;20.01;nan;100590.44;4971653;28;20118;-84
2023/08/16 00:06:56;;;;;;;0.10;0.10;;;;;;;20.00;nan;100601.38;4972691;28;20121;-84
2023/08/16 00:09:21;;;;;;;0.10;0.10;;;;;;;;;;4972793;28;20045;-84
2023/08/16 00:11:47;;;;;;;0.10;0.10;;;;;;;19.98;nan;100596.22;4971141;28;20070;-84
2023/08/16 00:14:12;;;;;;;0.10;0.10;;;;;;;;;;4971450;28;20050;-85
2023/08/16 00:16:38;;;;;;;0.10;0.10;;;;;;;19.95;nan;100591.28;4971168;28;20046;-85
2023/08/16 00:19:03;;;;;;;0.00;0.00;;;;;;;;;;4973843;28;20275;-85
2023/08/16 00:21:28;;;;;;;0.10;0.10;;;;;;;;;;4972338;28;20052;-85
2023/08/16 00:23:54;;;;;;;0.10;0.10;;;;;;;;;;4973003;28;20488;-84
2023/08/16 00:26:19;;;;;;;0.10;0.10;;;;;;;19.90;nan;100551.66;4969512;28;20054;-85
2023/08/16 00:28:45;;;;;;;0.10;0.10;;;;;;;;;;4972731;28;20555;-85
2023/08/16 00:31:11;;;;;;;0.10;0.10;;;;;;;19.87;nan;100594.19;4972710;28;20070;-85
2023/08/16 00:33:36;;;;;;;0.10;0.10;;;;;;;;;;4972743;28;20057;-85
2023/08/16 00:36:01;;;;;;;0.10;0.10;;;;;;;;;;4973099;28;20051;-85
2023/08/16 00:38:27;;;;;;;0.10;0.10;;;;;;;;;;4972034;28;20149;-85
2023/08/16 00:40:52;;;;;;;0.10;0.10;;;;;;;19.77;nan;100588.44;4971919;28;20050;-85
2023/08/16 00:43:18;;;;;;;0.10;0.10;;;;;;;19.73;nan;100728.41;4971558;28;20031;-85
2023/08/16 00:45:47;;;;;;;0.10;0.10;;;;;;;;;;4970624;28;20788;-84
2023/08/16 00:48:13;;;;;;;0.10;0.10;;;;;;;;;;4970745;28;20370;-84
2023/08/16 00:50:38;;;;;;;0.10;0.10;;;;;;;;;;4969843;28;20046;-84
2023/08/16 00:53:04;;;;;;;0.10;0.10;;;;;;;19.57;nan;100546.38;4992086;28;20464;-84
2023/08/16 00:55:29;;;;;;;0.08;0.08;;;;;;;;;;4974113;28;20307;-84
2023/08/16 00:57:54;;;;;;;0.10;0.10;;;;;;;;;;4976464;28;20501;-84
2023/08/16 01:00:20;;;;;;;0.10;0.10;;;;;;;19.51;nan;100531.13;4976892;28;20069;-84
2023/08/16 01:02:45;;;;;;;0.10;0.10;;;;;;;;;;4979226;28;20031;-84
2023/08/16 01:05:10;;;;;;;0.10;0.10;;;;;;;19.47;nan;100508.44;4975890;28;20031;-84
2023/08/16 01:07:36;;;;;;;0.10;0.10;;;;;;;;;;4976463;28;20393;-84
2023/08/16 01:10:01;;;;;;;0.10;0.10;;;;;;;19.41;nan;100515.47;4976820;28;20133;-86
2023/08/16 01:12:48;;;;;;;0.10;0.10;;;;;;;19.40;nan;100537.97;4975687;28;20054;-85
2023/08/16 01:15:22;;;;;;;0.10;0.10;;;;;;;19.42;nan;100506.38;4975544;28;20080;-87
2023/08/16 01:17:50;;;;;;;0.10;0.10;;;;;;;19.40;nan;100502.25;4976734;28;20046;-87
2023/08/16 01:20:17;;;;;;;0.10;0.10;;;;;;;19.38;nan;100574.03;4976147;28;20034;-88
2023/08/16 01:22:51;;;;;;;0.10;0.10;;;;;;;19.41;nan;100536.09;4978062;28;20036;-88
2023/08/16 01:25:42;;;;;;;0.10;0.10;;;;;;;19.42;nan;100538.56;4975063;28;20045;-86
2023/08/16 01:28:09;;;;;;;0.10;0.10;;;;;;;19.42;nan;100532.38;4976200;28;20074;-85
2023/08/16 01:30:34;;;;;;;0.10;0.10;;;;;;;19.40;nan;100562.09;4978424;28;20062;-89
2023/08/16 01:33:18;;;;;;;0.10;0.10;;;;;;;;;;4977418;28;20497;-85
2023/08/16 01:35:44;;;;;;;0.10;0.10;;;;;;;;;;4979285;28;20539;-86
2023/08/16 01:38:10;;;;;;;0.10;0.10;;;;;;;;;;4969212;28;20034;-85
2023/08/16 01:41:07;;;;;;;0.10;0.10;;;;;;;19.39;nan;100527.44;4978137;28;20039;-86
2023/08/16 01:43:32;;;;;;;0.10;0.10;;;;;;;;;;4978695;28;20023;-85
2023/08/16 01:46:00;;;;;;;0.10;0.10;;;;;;;19.38;nan;100531.13;4978828;28;20090;-87
2023/08/16 01:48:25;;;;;;;0.10;0.10;;;;;;;;;;4980923;28;20464;-87
2023/08/16 01:50:50;;;;;;;0.10;0.10;;;;;;;;;;4973478;28;20069;-86
2023/08/16 01:53:16;;;;;;;0.10;0.10;;;;;;;;;;4981709;28;20031;-85
2023/08/16 01:55:41;;;;;;;0.10;0.10;;;;;;;;;;4982056;28;20046;-85
2023/08/16 01:58:07;;;;;;;0.10;0.10;;;;;;;;;;4980610;28;20034;-86
2023/08/16 02:00:32;;;;;;;0.10;0.10;;;;;;;;;;4980057;28;20046;-86
2023/08/16 02:02:57;;;;;;;0.10;0.10;;;;;;;19.24;nan;100571.38;4978531;28;20056;-87
2023/08/16 02:05:22;;;;;;;0.10;0.10;;;;;;;;;;4977870;28;20034;-85
2023/08/16 02:07:48;;;;;;;0.10;0.10;;;;;;;22.42;100.00;120578.63;4978679;28;20270;-87
2023/08/16 02:10:13;;;;;;;0.10;0.10;;;;;;;19.12;nan;100617.81;4977277;28;20278;-85
2023/08/16 02:12:38;;;;;;;0.10;0.10;;;;;;;;;;4977377;28;20636;-85
2023/08/16 02:15:04;;;;;;;0.10;0.10;;;;;;;19.04;nan;100648.28;4978607;28;20416;-85
2023/08/16 02:17:29;;;;;;;0.10;0.10;;;;;;;19.01;nan;100536.16;4978863;28;20113;-85
2023/08/16 02:19:54;;;;;;;0.10;0.10;;;;;;;18.99;nan;100613.25;4978675;28;20039;-86
2023/08/16 02:22:19;;;;;;;0.03;0.03;;;;;;;;;;4976910;28;20118;-87
2023/08/16 02:24:45;;;;;;;0.10;0.10;;;;;;;18.95;nan;100585.19;4977148;28;20034;-86
2023/08/16 02:27:10;;;;;;;0.10;0.10;;;;;;;;;;4975213;28;20516;-86
2023/08/16 02:29:35;;;;;;;0.10;0.10;;;;;;;18.95;nan;100563.75;4975751;28;20126;-85
2023/08/16 02:32:00;;;;;;;0.10;0.10;;;;;;;18.95;nan;100639.63;4975008;28;20027;-86
2023/08/16 02:34:26;;;;;;;0.10;0.10;;;;;;;;;;4975002;28;20035;-85
2023/08/16 02:36:51;;;;;;;0.10;0.10;;;;;;;;;;4975267;28;20121;-86
2023/08/16 02:39:17;;;;;;;0.10;0.10;;;;;;;18.89;nan;100581.50;4976270;28;20042;-86
2023/08/16 02:41:42;;;;;;;0.10;0.10;;;;;;;18.85;nan;100554.31;4974118;28;20038;-85
2023/08/16 02:44:07;;;;;;;0.10;0.10;;;;;;;;;;4973909;28;20038;-86
2023/08/16 02:46:33;;;;;;;0.10;0.10;;;;;;;18.84;nan;100665.16;4973723;28;20541;-87
2023/08/16 02:48:58;;;;;;;0.10;0.10;;;;;;;;;;4973525;28;20061;-85
2023/08/16 02:51:23;;;;;;;0.10;0.10;;;;;;;18.81;nan;100557.59;4974748;28;20286;-87
2023/08/16 02:53:48;;;;;;;0.10;0.10;;;;;;;;;;4973822;28;20078;-85
2023/08/16 02:56:13;;;;;;;0.10;0.10;;;;;;;;;;4974389;28;20033;-85
2023/08/16 02:58:39;;;;;;;0.10;0.10;;;;;;;;;;4972628;28;20099;-86
2023/08/16 03:01:04;;;;;;;0.10;0.10;;;;;;;18.87;nan;100583.53;4973602;28;20039;-86
2023/08/16 03:03:29;;;;;;;0.10;0.10;;;;;;;;;;4974115;28;20043;-85
2023/08/16 03:05:54;;;;;;;0.10;0.10;;;;;;;;;;4973052;28;20034;-85
2023/08/16 03:08:19;;;;;;;0.10;0.10;;;;;;;;;;4974275;28;20070;-87
2023/08/16 03:10:45;;;;;;;0.10;0.10;;;;;;;18.99;nan;100591.81;4974349;28;20049;-85
2023/08/16 03:13:10;;;;;;;0.10;0.10;;;;;;;;;;4973566;28;20081;-86
2023/08/16 03:15:35;;;;;;;0.10;0.10;;;;;;;;;;4972912;28;20090;-85
2023/08/16 03:18:00;;;;;;;0.10;0.10;;;;;;;18.91;nan;100517.81;4974479;28;20341;-86
2023/08/16 03:20:26;;;;;;;0.10;0.10;;;;;;;18.91;nan;100578.63;4972963;28;20955;-85
2023/08/16 03:22:51;;;;;;;0.10;0.10;;;;;;;18.92;nan;100542.75;4974261;28;20333;-85
2023/08/16 03:25:17;;;;;;;0.10;0.10;;;;;;;;;;4974211;28;20062;-86
2023/08/16 03:27:42;;;;;;;0.10;0.10;;;;;;;;;;4973543;28;20557;-86
2023/08/16 03:30:08;;;;;;;0.10;0.10;;;;;;;19.03;nan;100545.63;4973188;28;20031;-86
2023/08/16 03:32:33;;;;;;;0.10;0.10;;;;;;;;;;4971690;28;20302;-85
2023/08/16 03:34:58;;;;;;;0.10;0.10;;;;;;;19.06;nan;100523.75;4972411;28;20027;-85
2023/08/16 03:37:23;;;;;;;0.10;0.10;;;;;;;;;;4970815;28;20125;-84
2023/08/16 03:39:49;;;;;;;0.10;0.10;;;;;;;19.06;nan;100601.47;4971053;28;20281;-84
2023/08/16 03:42:14;;;;;;;0.10;0.10;;;;;;;19.09;nan;100528.72;4972148;28;20023;-85
2023/08/16 03:44:40;;;;;;;0.10;0.10;;;;;;;;;;4971403;28;20035;-85
2023/08/16 03:47:05;;;;;;;0.10;0.10;;;;;;;19.08;nan;100543.16;4971623;28;20317;-85
2023/08/16 03:49:30;;;;;;;0.10;0.10;;;;;;;;;;4972436;28;20405;-84
2023/08/16 03:51:55;;;;;;;0.10;0.10;;;;;;;;;;4969950;28;20457;-85
2023/08/16 03:54:21;;;;;;;0.10;0.10;;;;;;;;;;4971783;28;20684;-85
2023/08/16 03:56:46;;;;;;;0.10;0.10;;;;;;;;;;4962429;28;20043;-85
2023/08/16 03:59:11;;;;;;;0.10;0.10;;;;;;;19.21;nan;100557.56;4962723;28;20023;-84
2023/08/16 04:01:36;;;;;;;0.10;0.10;;;;;;;19.25;nan;100590.97;4971807;28;20121;-84
2023/08/16 04:04:01;;;;;;;0.10;0.10;;;;;;;;;;4970398;28;20035;-87
2023/08/16 04:06:27;;;;;;;0.10;0.10;;;;;;;;;;4971616;28;20042;-85
2023/08/16 04:08:52;;;;;;;0.10;0.10;;;;;;;;;;4971639;28;20286;-85
2023/08/16 04:11:17;;;;;;;0.10;0.10;;;;;;;;;;4971467;28;20039;-85
2023/08/16 04:13:42;;;;;;;0.10;0.10;;;;;;;19.06;nan;100549.75;4971329;28;20289;-84
2023/08/16 04:16:07;;;;;;;0.10;0.10;;;;;;;;;;4970255;28;20046;-85
2023/08/16 04:18:32;;;;;;;0.10;0.10;;;;;;;;;;4971618;28;20133;-85
2023/08/16 04:20:58;;;;;;;0.10;0.10;;;;;;;;;;4970196;28;20027;-85
2023/08/16 04:23:23;;;;;;;0.10;0.10;;;;;;;;;;4976712;28;20042;-85
2023/08/16 04:25:49;;;;;;;0.10;0.10;;;;;;;;;;4973135;28;20118;-86
2023/08/16 04:28:14;;;;;;;0.10;0.10;;;;;;;;;;4975383;28;20042;-85
2023/08/16 04:30:39;;;;;;;0.10;0.10;;;;;;;;;;4983105;28;20039;-85
2023/08/16 04:33:05;;;;;;;0.10;0.10;;;;;;;19.45;nan;100655.31;4980819;28;20034;-85
2023/08/16 04:35:30;;;;;;;0.10;0.10;;;;;;;;;;4974163;28;20559;-85
2023/08/16 04:37:55;;;;;;;0.10;0.10;;;;;;;19.43;nan;100576.94;4973635;28;20035;-86
2023/08/16 04:40:20;;;;;;;0.10;0.10;;;;;;;19.45;nan;100564.97;4974453;28;20045;-85
2023/08/16 04:42:46;;;;;;;0.10;0.10;;;;;;;;;;4973753;28;20058;-85
2023/08/16 04:45:11;;;;;;;0.10;0.10;;;;;;;;;;4974460;28;20043;-85
2023/08/16 04:47:36;;;;;;;0.10;0.10;;;;;;;;;;4974109;28;20054;-85
2023/08/16 04:50:06;;;;;;;0.10;0.10;;;;;;;;;;4973308;28;20289;-85
2023/08/16 04:52:31;;;;;;;0.10;0.10;;;;;;;19.68;nan;100548.41;4972585;28;20125;-85
2023/08/16 04:54:56;;;;;;;0.10;0.10;;;;;;;;;;4971422;28;20081;-85
2023/08/16 04:57:21;;;;;;;0.10;0.10;;;;;;;19.84;nan;100535.59;4973325;28;20037;-85
2023/08/16 04:59:46;;;;;;;0.10;0.10;;;;;;;;;;4971819;28;20034;-85
2023/08/16 05:02:12;;;;;;;0.10;0.10;;;;;;;;;;4969929;28;20537;-86
2023/08/16 05:04:37;;;;;;;0.10;0.10;;;;;;;;;;4970639;28;20042;-85
2023/08/16 05:07:02;;;;;;;0.10;0.10;;;;;;;;;;4971960;28;20038;-85
2023/08/16 05:09:27;;;;;;;0.10;0.10;;;;;;;;;;4972545;28;20096;-85
2023/08/16 05:11:52;;;;;;;0.10;0.10;;;;;;;20.02;nan;100519.63;4972235;28;20521;-85
2023/08/16 05:14:17;;;;;;;0.10;0.10;;;;;;;;;;4971737;28;20231;-85
2023/08/16 05:16:43;;;;;;;0.10;0.10;;;;;;;;;;4970564;28;20452;-85
2023/08/16 05:19:08;;;;;;;0.10;0.10;;;;;;;;;;4971628;28;20031;-85
2023/08/16 05:21:33;;;;;;;0.10;0.10;;;;;;;;;;4973199;28;20041;-85
2023/08/16 05:23:59;;;;;;;0.10;0.10;;;;;;;;;;4974127;28;20035;-85
2023/08/16 05:26:24;;;;;;;0.10;0.10;;;;;;;;;;4974089;28;20031;-85
2023/08/16 05:28:49;;;;;;;0.10;0.10;;;;;;;20.59;nan;100560.00;4975494;28;20090;-85
2023/08/16 05:31:15;;;;;;;0.10;0.10;;;;;;;20.53;nan;100561.66;4974738;28;20610;-85
2023/08/16 05:33:41;;;;;;;0.10;0.10;;;;;;;20.51;nan;100531.50;4992175;28;20305;-85
2023/08/16 05:36:07;;;;;;;0.10;0.10;;;;;;;20.57;nan;100562.09;4977675;28;20119;-85
2023/08/16 05:38:32;;;;;;;0.10;0.10;;;;;;;;;;4975647;28;20041;-85
2023/08/16 05:40:58;;;;;;;0.10;0.10;;;;;;;20.69;nan;100634.75;4974863;28;20031;-85
2023/08/16 05:43:23;;;;;;;0.10;0.10;;;;;;;;;;4975353;28;20102;-85
2023/08/16 05:45:50;;;;;;;0.00;0.00;;;;;;;20.67;nan;100545.50;4975803;28;20087;-84
2023/08/16 05:48:15;;;;;;;0.03;0.03;;;;;;;20.63;nan;100576.50;4975847;28;20052;-85
2023/08/16 05:50:41;;;;;;;0.10;0.10;;;;;;;;;;4968054;28;20038;-85
2023/08/16 05:53:06;;;;;;;0.10;0.10;;;;;;;20.61;nan;100584.78;4974703;28;20043;-85
2023/08/16 05:55:32;;;;;;;0.10;0.10;;;;;;;;;;4974075;28;20046;-85
2023/08/16 05:57:57;;;;;;;0.10;0.10;;;;;;;;;;4974537;28;20042;-85
2023/08/16 06:00:22;;;;;;;0.10;0.10;;;;;;;;;;4975068;28;20054;-85
2023/08/16 06:02:47;;;;;;;0.10;0.10;;;;;;;20.77;nan;100588.81;4973050;28;20039;-85
2023/08/16 06:05:13;;;;;;;0.00;0.00;;;;;;;20.88;nan;100573.84;4975184;28;20038;-85
2023/08/16 06:07:38;;;;;;;0.10;0.10;;;;;;;20.90;nan;100582.50;4975422;28;20027;-85
2023/08/16 06:10:04;;;;;;;0.10;0.10;;;;;;;;;;4973812;28;20409;-85
2023/08/16 06:12:29;;;;;;;0.10;0.10;;;;;;;;;;4972985;28;20046;-85
2023/08/16 06:14:55;;;;;;;0.00;0.00;;;;;;;21.08;nan;100589.84;4974011;28;20445;-85
2023/08/16 06:17:20;;;;;;;0.10;0.10;;;;;;;;;;4974600;28;20335;-85
2023/08/16 06:19:46;;;;;;;0.00;0.00;;;;;;;;;;4973448;28;20336;-85
2023/08/16 06:22:11;;;;;;;0.05;0.05;;;;;;;;;;4972100;28;20027;-85
2023/08/16 06:24:36;;;;;;;0.10;0.10;;;;;;;;;;4976001;28;20034;-84
2023/08/16 06:27:02;;;;;;;0.10;0.10;;;;;;;21.26;nan;100559.47;4975230;28;20404;-85
2023/08/16 06:29:27;;;;;;;0.10;0.10;;;;;;;;;;4976000;28;20054;-85
2023/08/16 06:31:55;;;;;;;0.00;0.00;;;;;;;21.44;nan;100636.72;4974641;28;20495;-85
2023/08/16 06:34:20;;;;;;;0.00;0.00;;;;;;;21.55;nan;100584.88;4974345;28;20077;-85
2023/08/16 06:36:46;;;;;;;0.10;0.10;;;;;;;21.73;nan;100592.13;4976029;28;20482;-85
2023/08/16 06:39:12;;;;;;;0.00;0.00;;;;;;;21.85;nan;100591.16;4969920;28;20527;-85
2023/08/16 06:41:37;;;;;;;0.10;0.10;;;;;;;22.38;100.00;120143.19;4975015;28;20046;-85
2023/08/16 06:44:03;;;;;;;0.10;0.10;;;;;;;;;;4974215;28;20043;-84
2023/08/16 06:46:28;;;;;;;0.00;0.00;;;;;;;22.66;nan;100613.34;4975217;28;20271;-85
2023/08/16 06:48:53;;;;;;;0.00;0.00;;;;;;;;;;4978409;28;20035;-85
2023/08/16 06:51:18;;;;;;;0.00;0.00;;;;;;;;;;4969207;28;20316;-84
2023/08/16 06:53:45;;;;;;;0.00;0.00;;;;;;;;;;4974808;28;20062;-85
2023/08/16 06:56:10;;;;;;;0.00;0.00;;;;;;;;;;4973771;28;20031;-85
2023/08/16 06:58:36;;;;;;;0.00;0.00;;;;;;;24.39;nan;100690.56;4973507;28;20105;-85
2023/08/16 07:01:01;;;;;;;0.00;0.00;;;;;;;24.25;nan;100657.56;4973393;28;20027;-84
2023/08/16 07:03:27;;;;;;;0.00;0.00;;;;;;;;;;4971940;28;20470;-84
2023/08/16 07:05:52;;;;;;;0.00;0.00;;;;;;;24.19;nan;100619.88;4972029;28;20566;-85
2023/08/16 07:08:17;;;;;;;0.00;0.00;;;;;;;24.19;nan;100631.50;4973212;28;20089;-85
2023/08/16 07:10:43;;;;;;;0.00;0.00;;;;;;;;;;4972316;28;20162;-85
2023/08/16 07:13:08;;;;;;;0.00;0.00;;;;;;;;;;4972051;28;20045;-85
2023/08/16 07:15:33;;;;;;;0.00;0.00;;;;;;;24.41;nan;100610.06;4973480;28;20045;-85
2023/08/16 07:18:00;;;;;;;0.00;0.00;;;;;;;24.89;nan;100613.38;4971530;28;20385;-85
2023/08/16 07:20:26;;;;;;;0.00;0.00;;;;;;;25.45;nan;100649.47;4971146;28;20109;-85
2023/08/16 07:22:51;;;;;;;0.00;0.00;;;;;;;26.16;nan;100633.41;4972336;28;20193;-85
2023/08/16 07:25:17;;;;;;;0.00;0.00;;;;;;;26.88;nan;100651.28;4971604;28;20042;-85
2023/08/16 07:27:42;;;;;;;0.00;0.00;;;;;;;27.52;nan;100638.78;4972822;28;20031;-85
2023/08/16 07:30:07;;;;;;;0.00;0.00;;;;;;;28.09;nan;100764.97;4971695;28;20031;-85
2023/08/16 07:32:33;;;;;;;0.00;0.00;;;;;;;28.26;nan;100762.88;4969794;28;20274;-85
2023/08/16 07:34:58;;;;;;;0.00;0.00;;;;;;;28.53;nan;100762.78;4970916;28;20046;-85
2023/08/16 07:37:28;;;;;;;0.00;0.00;;;;;;;28.96;nan;100766.19;4972363;28;20042;-85
2023/08/16 07:39:53;;;;;;;0.00;0.00;;;;;;;29.23;nan;100770.63;4972549;28;20094;-85
2023/08/16 07:42:19;;;;;;;0.00;0.00;;;;;;;29.47;nan;100759.19;4968619;28;20212;-85
2023/08/16 07:44:44;;;;;;;0.00;0.00;;;;;;;29.74;nan;100767.13;4972250;28;20047;-84
2023/08/16 07:47:11;;;;;;;0.00;0.00;;;;;;;29.97;nan;100763.00;4971687;28;20038;-85
2023/08/16 07:49:36;;;;;;;0.00;0.00;;;;;;;30.31;nan;100774.13;4970863;28;20576;-85
2023/08/16 07:52:01;;;;;;;0.00;0.00;;;;;;;30.88;nan;100772.00;4970347;28;20035;-87
2023/08/16 07:54:27;;;;;;;0.00;0.00;;;;;;;31.40;nan;100778.78;4970651;28;20031;-85
2023/08/16 07:56:52;;;;;;;0.00;0.00;;;;;;;31.53;nan;100778.13;4972274;28;20302;-84
2023/08/16 07:59:18;;;;;;;0.00;0.00;;;;;;;31.59;nan;100780.81;4970655;28;20031;-85
2023/08/16 08:01:43;;;;;;;0.00;0.00;;;;;;;31.07;nan;100781.16;4970375;28;20034;-85
2023/08/16 08:04:09;;;;;;;0.00;0.00;;;;;;;30.73;nan;100780.25;4962293;28;20052;-85
2023/08/16 08:06:36;;;;;;;0.00;0.00;;;;;;;30.43;nan;100790.16;4970857;28;20322;-85
2023/08/16 08:09:02;;;;;;;0.00;0.00;;;;;;;30.45;nan;100670.66;4972575;28;20037;-85
2023/08/16 08:11:27;;;;;;;0.00;0.00;;;;;;;30.80;nan;100693.38;4973604;28;20038;-85
2023/08/16 08:13:52;;;;;;;0.00;0.00;;;;;;;;;;4972354;28;20034;-85
2023/08/16 08:16:18;;;;;;;0.00;0.00;;;;;;;;;;4972133;28;20294;-85
2023/08/16 08:18:43;;;;;;;0.00;0.00;;;;;;;;;;4973567;28;20317;-85
2023/08/16 08:21:08;;;;;;;0.00;0.00;;;;;;;29.69;nan;100696.25;4973130;28;20031;-85
2023/08/16 08:23:33;;;;;;;0.00;0.00;;;;;;;29.99;nan;100679.03;4974319;28;20042;-85
2023/08/16 08:25:59;;;;;;;0.00;0.00;;;;;;;;;;4975178;28;20042;-85
2023/08/16 08:28:24;;;;;;;0.00;0.00;;;;;;;;;;4972585;28;20437;-85
2023/08/16 08:30:50;;;;;;;0.00;0.00;;;;;;;31.87;nan;100677.97;4971612;28;20517;-85
2023/08/16 08:33:15;;;;;;;0.00;0.00;;;;;;;32.41;nan;100676.00;4972760;28;20031;-84
2023/08/16 08:35:40;;;;;;;0.00;0.00;;;;;;;;;;4975439;28;20046;-84
2023/08/16 08:38:05;;;;;;;0.00;0.00;;;;;;;33.01;nan;100695.38;4976169;28;20747;-86
2023/08/16 08:40:31;;;;;;;0.00;0.00;;;;;;;32.29;nan;100788.63;4980495;28;20034;-85
2023/08/16 08:42:59;;;;;;;0.00;0.00;;;;;;;31.68;nan;100710.75;4974443;28;20444;-85
2023/08/16 08:45:26;;;;;;;0.00;0.00;;;;;;;32.26;nan;100740.75;4970457;28;20464;-82
2023/08/16 08:47:53;;;;;;;0.00;0.00;;;;;;;32.71;nan;100749.53;4970880;28;20433;-85
2023/08/16 08:50:19;;;;;;;0.00;0.00;;;;;;;32.94;nan;100705.91;4971574;28;20054;-85
2023/08/16 08:52:50;;;;;;;0.00;0.00;;;;;;;33.12;nan;100728.94;4972675;28;20374;-83
2023/08/16 08:55:15;;;;;;;;;;;;;;;33.18;nan;100709.41;4967102;28;20070;-83
2023/08/16 08:57:40;;;;;;;0.00;0.00;;;;;;;;;;4967018;28;19918;-85
2023/08/16 09:00:08;;;;;;;0.00;0.00;;;;;;;32.55;nan;100698.81;4969072;28;20039;-85
2023/08/16 09:02:36;;;;;;;0.00;0.00;;;;;;;32.08;nan;100692.28;4970795;28;20027;-85
2023/08/16 09:05:03;;;;;;;0.00;0.00;;;;;;;;;;4970685;28;20038;-85
2023/08/16 09:07:30;;;;;;;0.00;0.00;;;;;;;31.38;nan;100698.16;4969817;28;20039;-85
2023/08/16 09:09:58;;;;;;;0.00;0.00;;;;;;;31.02;nan;100676.59;4971328;28;20033;-85
2023/08/16 09:12:24;;;;;;;0.00;0.00;;;;;;;30.78;nan;100706.50;4969723;28;20039;-85
2023/08/16 09:14:49;;;;;;;0.00;0.00;;;;;;;;;;4969228;28;20130;-85
2023/08/16 09:17:14;;;;;;;0.00;0.00;;;;;;;;;;4962205;28;20282;-85
2023/08/16 09:19:46;;;;;;;0.00;0.00;;;;;;;31.23;nan;100679.97;4972259;28;20065;-85
2023/08/16 09:22:14;;;;;;;0.00;0.00;;;;;;;30.94;nan;100699.03;4971041;28;20054;-85
2023/08/16 09:24:42;;;;;;;0.00;0.00;;;;;;;30.62;nan;100689.38;4971338;28;20053;-85
2023/08/16 09:27:07;;;;;;;0.00;0.00;;;;;;;30.35;nan;100679.72;4971914;28;20027;-85
2023/08/16 09:29:33;;;;;;;0.00;0.00;;;;;;;;;;4974273;28;20042;-84
2023/08/16 09:31:58;;;;;;;0.00;0.00;;;;;;;29.87;nan;100660.25;4972018;28;20062;-85
2023/08/16 09:34:24;;;;;;;0.00;0.00;;;;;;;;;;4971624;28;20046;-85
2023/08/16 09:36:51;;;;;;;0.00;0.00;;;;;;;30.08;nan;100677.31;4971469;28;20042;-85
2023/08/16 09:39:16;;;;;;;0.00;0.00;;;;;;;30.44;nan;100663.56;4970057;28;20030;-85
2023/08/16 09:41:49;;;;;;;0.00;0.00;;;;;;;30.36;nan;100678.59;4969967;28;20078;-85
2023/08/16 09:44:15;;;;;;;0.00;0.00;;;;;;;30.54;nan;100671.69;4968138;28;20321;-84
2023/08/16 09:46:41;;;;;;;0.00;0.00;;;;;;;30.84;nan;100650.78;4969590;28;20504;-85
2023/08/16 09:49:09;;;;;;;0.00;0.00;;;;;;;31.32;nan;100673.59;4969764;28;20091;-85
2023/08/16 09:51:38;;;;;;;0.00;0.00;;;;;;;31.31;nan;100665.69;4970817;28;20091;-85
2023/08/16 09:54:13;;;;;;;0.00;0.00;;;;;;;31.46;nan;100684.72;4970076;28;20031;-84
2023/08/16 09:56:42;;;;;;;0.00;0.00;;;;;;;31.85;nan;100675.56;4970625;28;20039;-83
2023/08/16 09:59:08;;;;;;;0.00;0.00;;;;;;;31.81;nan;100669.03;4969362;28;20031;-84
2023/08/16 10:01:35;;;;;;;0.00;0.00;;;;;;;31.87;nan;100658.84;4969323;28;20034;-83
2023/08/16 10:04:02;;;;;;;0.00;0.00;;;;;;;31.45;nan;100665.88;4969342;28;20118;-84
2023/08/16 10:06:27;;;;;;;0.00;0.00;;;;;;;;;;4969463;28;20412;-84
2023/08/16 10:08:52;;;;;;;0.00;0.00;;;;;;;30.73;nan;100692.88;4972208;28;20070;-84
2023/08/16 10:11:22;;;;;;;0.00;0.00;;;;;;;30.85;nan;100646.97;4972968;28;20489;-83
2023/08/16 10:13:47;;;;;;;0.00;0.00;;;;;;;31.52;nan;100660.88;4974234;28;20333;-84
2023/08/16 10:16:14;;;;;;;0.00;0.00;;;;;;;31.69;nan;100663.97;4971957;28;20031;-84
2023/08/16 10:18:42;;;;;;;0.00;0.00;;;;;;;31.90;nan;100700.09;4974144;28;20815;-84
2023/08/16 10:21:08;;;;;;;0.00;0.00;;;;;;;;;;4972483;28;20412;-84
2023/08/16 10:23:35;;;;;;;0.00;0.00;;;;;;;32.27;nan;100668.50;4973300;28;20492;-84
2023/08/16 10:26:03;;;;;;;0.00;0.00;;;;;;;32.77;nan;100690.00;4972934;28;20070;-84
2023/08/16 10:28:30;;;;;;;0.00;0.00;;;;;;;33.45;nan;100665.91;4973339;28;20038;-84
2023/08/16 10:30:58;;;;;;;0.00;0.00;;;;;;;33.25;nan;100640.47;4973987;28;20022;-84
2023/08/16 10:33:26;;;;;;;0.00;0.00;;;;;;;;;;4972636;28;20034;-84
2023/08/16 10:35:52;;;;;;;0.00;0.00;;;;;;;32.40;nan;100645.06;4973966;28;20066;-84
2023/08/16 10:38:20;;;;;;;0.00;0.00;;;;;;;33.61;nan;100727.63;4971214;28;20042;-84
2023/08/16 10:40:58;;;;;;;0.00;0.00;;;;;;;34.66;nan;100716.75;4972205;28;20045;-84
2023/08/16 10:43:53;;;;;;;0.00;0.00;;;;;;;36.00;nan;100719.75;4971632;28;20042;-84
2023/08/16 10:46:27;;;;;;;0.00;0.00;;;;;;;35.34;nan;100718.75;4964216;28;20038;-85
2023/08/16 10:49:00;;;;;;;0.00;0.00;;;;;;;34.86;nan;100709.97;4969031;28;20046;-84
2023/08/16 10:51:25;;;;;;;0.00;0.00;;;;;;;34.64;nan;100712.69;4971899;28;20049;-84
2023/08/16 10:53:51;;;;;;;0.00;0.00;;;;;;;34.59;nan;100718.28;4972860;28;20114;-84
2023/08/16 10:56:19;;;;;;;0.00;0.00;;;;;;;35.24;nan;100714.31;4973032;28;20055;-85
2023/08/16 10:58:49;;;;;;;0.00;0.00;;;;;;;36.39;nan;100712.56;4972613;28;20114;-84
2023/08/16 11:01:16;;;;;;;0.00;0.00;;;;;;;36.16;nan;100709.13;4965068;28;20089;-84
2023/08/16 11:03:43;;;;;;;0.00;0.00;;;;;;;35.21;nan;100712.19;4973359;28;20038;-85
2023/08/16 11:06:14;;;;;;;0.00;0.00;;;;;;;35.45;nan;100720.09;4974417;28;20031;-85
2023/08/16 11:08:44;;;;;;;0.00;0.00;;;;;;;35.38;nan;100714.25;4974088;28;20110;-84
2023/08/16 11:11:14;;;;;;;0.00;0.00;;;;;;;35.96;nan;100704.97;4974731;28;20034;-84
2023/08/16 11:13:41;;;;;;;0.00;0.00;;;;;;;36.39;nan;100693.28;4973783;28;20035;-84
2023/08/16 11:16:09;;;;;;;0.00;0.00;;;;;;;37.07;nan;100695.63;4972689;28;20467;-85
2023/08/16 11:18:36;;;;;;;0.00;0.00;;;;;;;37.71;nan;100697.56;4972801;28;20428;-84
2023/08/16 11:21:03;;;;;;;0.00;0.00;;;;;;;37.10;nan;100697.72;4974548;28;20567;-85
2023/08/16 11:23:37;;;;;;;0.00;0.00;;;;;;;37.84;nan;100699.28;4974253;28;20400;-84
2023/08/16 11:26:03;;;;;;;0.00;0.00;;;;;;;38.37;nan;100691.53;4974670;28;20941;-84
2023/08/16 11:28:32;;;;;;;0.00;0.00;;;;;;;38.98;nan;100696.63;4972124;28;20863;-84
2023/08/16 11:30:59;;;;;;;0.00;0.00;;;;;;;38.35;nan;100700.16;4971158;28;20415;-84
2023/08/16 11:33:32;;;;;;;0.00;0.00;;;;;;;37.92;nan;100692.91;4972370;28;20547;-84
2023/08/16 11:35:57;;;;;;;0.00;0.00;;;;;;;36.13;nan;100694.03;4972817;28;20408;-84
2023/08/16 11:38:23;;;;;;;0.00;0.00;;;;;;;34.80;nan;100686.50;4971600;28;20936;-84
2023/08/16 11:40:48;;;;;;;0.00;0.00;;;;;;;34.23;nan;100678.69;4973318;28;20910;-84
2023/08/16 11:43:14;;;;;;;0.00;0.00;;;;;;;34.27;nan;100676.13;4972920;28;20458;-84
2023/08/16 11:45:39;;;;;;;0.00;0.00;;;;;;;34.48;nan;100673.75;4976064;28;20439;-84
2023/08/16 11:48:05;;;;;;;0.00;0.00;;;;;;;35.22;nan;100670.63;4979242;28;20473;-84
2023/08/16 11:50:33;;;;;;;0.00;0.00;;;;;;;36.54;nan;100665.28;4979246;28;20435;-84
2023/08/16 11:53:00;;;;;;;0.00;0.00;;;;;;;36.81;nan;100670.81;4974372;28;20830;-85
2023/08/16 11:55:28;;;;;;;0.00;0.00;;;;;;;37.43;nan;100672.34;4978131;28;20487;-85
2023/08/16 11:57:53;;;;;;;0.00;0.00;;;;;;;36.76;nan;100666.28;4974466;28;20408;-84
2023/08/16 12:00:29;;;;;;;0.00;0.00;;;;;;;35.76;nan;100664.31;4977318;28;20404;-84
2023/08/16 12:02:57;;;;;;;0.00;0.00;;;;;;;35.35;nan;100660.69;4977631;28;20442;-84
2023/08/16 12:05:23;;;;;;;0.00;0.00;;;;;;;34.45;nan;100660.63;4976744;28;20402;-84
2023/08/16 12:07:51;;;;;;;0.00;0.00;;;;;;;33.92;nan;100653.78;4974816;28;20396;-84
2023/08/16 12:10:24;;;;;;;0.00;0.00;;;;;;;33.62;nan;100657.94;4972220;28;20416;-83
2023/08/16 12:12:52;;;;;;;0.00;0.00;;;;;;;33.43;nan;100647.03;4971872;28;20425;-83
2023/08/16 12:15:28;;;;;;;0.00;0.00;;;;;;;33.18;nan;100642.78;4976265;28;20413;-84
2023/08/16 12:17:55;;;;;;;0.00;0.00;;;;;;;33.49;nan;100634.84;4972665;28;20937;-83
2023/08/16 12:20:26;;;;;;;0.00;0.00;;;;;;;33.82;nan;100643.84;4971839;28;20495;-83
2023/08/16 12:22:54;;;;;;;0.00;0.00;;;;;;;33.58;nan;100637.72;4974006;28;20421;-84
2023/08/16 12:25:20;;;;;;;0.00;0.00;;;;;;;34.09;nan;100638.66;4973567;28;20408;-84
2023/08/16 12:27:45;;;;;;;0.00;0.00;;;;;;;33.86;nan;100632.25;4974644;28;20404;-84
2023/08/16 12:30:11;;;;;;;0.00;0.00;;;;;;;34.08;nan;100634.25;4972459;28;20403;-84
2023/08/16 12:32:37;;;;;;;0.00;0.00;;;;;;;34.28;nan;100625.59;4973635;28;20405;-84
2023/08/16 12:35:02;;;;;;;0.00;0.00;;;;;;;33.98;nan;100624.31;4973333;28;20601;-84
2023/08/16 12:37:28;;;;;;;0.00;0.00;;;;;;;33.71;nan;100614.16;4975198;28;20423;-83